createdAt,value
2022-08-07T00:00:41.261Z,0.00
2022-08-07T00:03:10.994Z,0.00
2022-08-07T00:04:30.173Z,0.00
2022-08-07T00:06:12.153Z,0.00
2022-08-07T00:07:40.450Z,0.00
2022-08-07T00:08:50.203Z,0.00
2022-08-07T00:11:33.174Z,0.00
2022-08-07T00:13:17.643Z,0.00
2022-08-07T00:14:36.537Z,0.00
2022-08-07T00:16:33.839Z,0.00
2022-08-07T00:17:41.545Z,0.00
2022-08-07T00:18:53.165Z,0.00
2022-08-07T00:22:09.152Z,0.00
2022-08-07T00:23:28.342Z,0.00
2022-08-07T00:24:37.475Z,0.00
2022-08-07T00:27:28.459Z,0.00
2022-08-07T00:29:14.071Z,0.00
2022-08-07T00:30:39.925Z,0.00
2022-08-07T00:32:40.785Z,0.00
2022-08-07T00:33:47.472Z,0.00
2022-08-07T00:34:56.318Z,0.00
2022-08-07T00:36:35.698Z,0.00
2022-08-07T00:38:05.396Z,0.00
2022-08-07T00:39:09.054Z,0.00
2022-08-07T00:41:10.070Z,0.00
2022-08-07T00:42:42.282Z,0.00
2022-08-07T00:44:33.158Z,0.00
2022-08-07T00:46:16.599Z,0.00
2022-08-07T00:48:30.859Z,0.00
2022-08-07T00:51:08.848Z,0.00
2022-08-07T00:53:23.089Z,0.00
2022-08-07T00:54:31.249Z,0.00
2022-08-07T00:56:30.267Z,0.00
2022-08-07T00:58:23.776Z,0.00
2022-08-07T00:59:41.554Z,0.00
2022-08-07T01:00:53.361Z,0.00
2022-08-07T01:02:40.902Z,0.00
2022-08-07T01:04:43.329Z,0.00
2022-08-07T01:06:44.935Z,0.00
2022-08-07T01:07:55.267Z,0.00
2022-08-07T01:10:04.217Z,0.00
2022-08-07T01:13:16.336Z,0.00
2022-08-07T01:14:37.117Z,0.00
2022-08-07T01:16:43.064Z,0.00
2022-08-07T01:18:30.493Z,0.00
2022-08-07T01:20:00.173Z,0.00
2022-08-07T01:21:42.549Z,0.00
2022-08-07T01:24:02.977Z,0.00
2022-08-07T01:26:00.637Z,0.00
2022-08-07T01:27:27.171Z,0.00
2022-08-07T01:29:15.165Z,0.00
2022-08-07T01:30:27.266Z,0.00
2022-08-07T01:31:54.313Z,0.00
2022-08-07T01:34:02.021Z,0.00
2022-08-07T01:35:09.773Z,0.00
2022-08-07T01:36:52.833Z,0.00
2022-08-07T01:38:53.794Z,0.00
2022-08-07T01:40:26.047Z,0.00
2022-08-07T01:42:07.147Z,0.00
2022-08-07T01:44:14.129Z,0.00
2022-08-07T01:45:46.697Z,0.00
2022-08-07T01:46:51.256Z,0.00
2022-08-07T01:49:59.261Z,0.00
2022-08-07T01:52:06.895Z,0.00
2022-08-07T01:54:32.616Z,0.00
2022-08-07T01:56:28.894Z,0.00
2022-08-07T01:58:45.335Z,0.00
2022-08-07T02:00:00.971Z,0.00
2022-08-07T02:01:25.608Z,0.00
2022-08-07T02:04:16.930Z,0.00
2022-08-07T02:06:37.672Z,0.00
2022-08-07T02:08:29.313Z,0.00
2022-08-07T02:10:10.263Z,0.00
2022-08-07T02:12:29.404Z,0.00
2022-08-07T02:14:52.191Z,0.00
2022-08-07T02:15:58.852Z,0.00
2022-08-07T02:17:08.811Z,0.00
2022-08-07T02:19:05.680Z,0.00
2022-08-07T02:21:27.675Z,0.00
2022-08-07T02:23:11.697Z,0.00
2022-08-07T02:24:55.985Z,0.00
2022-08-07T02:26:57.563Z,0.00
2022-08-07T02:28:12.679Z,0.00
2022-08-07T02:30:09.633Z,0.00
2022-08-07T02:31:39.790Z,0.00
2022-08-07T02:33:23.601Z,0.00
2022-08-07T02:36:43.855Z,0.00
2022-08-07T02:37:55.796Z,0.00
2022-08-07T02:40:29.787Z,0.00
2022-08-07T02:42:31.648Z,0.00
2022-08-07T02:43:38.873Z,0.00
2022-08-07T02:44:59.267Z,0.00
2022-08-07T02:47:50.937Z,0.00
2022-08-07T02:49:10.875Z,0.00
2022-08-07T02:50:41.958Z,0.00
2022-08-07T02:53:16.657Z,0.00
2022-08-07T02:54:25.279Z,0.00
2022-08-07T02:56:33.658Z,0.00
2022-08-07T02:58:16.571Z,0.00
2022-08-07T02:59:32.960Z,0.00
2022-08-07T03:00:46.721Z,0.00
2022-08-07T03:02:20.564Z,0.00
2022-08-07T03:03:56.286Z,0.00
2022-08-07T03:05:53.561Z,0.00
2022-08-07T03:07:16.294Z,0.00
2022-08-07T03:08:46.138Z,0.00
2022-08-07T03:11:06.822Z,0.00
2022-08-07T03:12:42.381Z,0.00
2022-08-07T03:14:12.618Z,0.00
2022-08-07T03:16:23.038Z,0.00
2022-08-07T03:17:36.315Z,0.00
2022-08-07T03:19:06.501Z,0.00
2022-08-07T03:21:04.237Z,0.00
2022-08-07T03:22:35.951Z,0.00
2022-08-07T03:24:47.758Z,0.00
2022-08-07T03:27:09.961Z,0.00
2022-08-07T03:29:03.188Z,0.00
2022-08-07T03:30:18.544Z,0.00
2022-08-07T03:32:19.243Z,0.00
2022-08-07T03:33:40.227Z,0.00
2022-08-07T03:35:26.052Z,0.00
2022-08-07T03:37:18.451Z,0.00
2022-08-07T03:38:41.131Z,0.00
2022-08-07T03:40:44.242Z,0.00
2022-08-07T03:42:51.209Z,0.00
2022-08-07T03:44:21.653Z,0.00
2022-08-07T03:45:59.119Z,0.00
2022-08-07T03:48:04.900Z,0.00
2022-08-07T03:49:37.145Z,0.00
2022-08-07T03:50:58.076Z,0.00
2022-08-07T03:52:57.663Z,0.00
2022-08-07T03:55:52.876Z,0.00
2022-08-07T03:59:19.880Z,0.00
2022-08-07T04:01:01.522Z,0.00
2022-08-07T04:02:09.144Z,0.00
2022-08-07T04:03:21.767Z,0.00
2022-08-07T04:06:50.989Z,0.00
2022-08-07T04:08:11.959Z,0.00
2022-08-07T04:09:23.389Z,0.00
2022-08-07T04:12:47.252Z,0.00
2022-08-07T04:15:10.512Z,0.00
2022-08-07T04:16:37.230Z,0.00
2022-08-07T04:20:21.987Z,0.00
2022-08-07T04:21:39.175Z,0.00
2022-08-07T04:23:07.701Z,0.00
2022-08-07T04:25:54.863Z,0.00
2022-08-07T04:27:15.385Z,0.00
2022-08-07T04:28:33.233Z,0.00
2022-08-07T04:31:38.406Z,0.00
2022-08-07T04:33:21.335Z,0.00
2022-08-07T04:34:51.749Z,0.00
2022-08-07T04:36:45.497Z,0.00
2022-08-07T04:38:25.512Z,0.00
2022-08-07T04:39:41.841Z,0.29
2022-08-07T04:41:42.498Z,0.00
2022-08-07T04:43:08.024Z,0.00
2022-08-07T04:45:08.480Z,0.29
2022-08-07T04:48:28.796Z,0.00
2022-08-07T04:50:16.659Z,0.00
2022-08-07T04:51:33.128Z,0.00
2022-08-07T04:54:13.500Z,0.29
2022-08-07T05:00:55.745Z,0.29
2022-08-07T05:02:02.546Z,0.29
2022-08-07T05:04:17.419Z,0.29
2022-08-07T05:07:09.569Z,0.29
2022-08-07T05:09:06.157Z,0.29
2022-08-07T05:10:17.369Z,0.39
2022-08-07T05:12:52.994Z,0.39
2022-08-07T05:15:35.452Z,0.39
2022-08-07T05:16:52.665Z,0.29
2022-08-07T05:19:13.165Z,0.39
2022-08-07T05:20:21.726Z,0.29
2022-08-07T05:22:10.728Z,0.39
2022-08-07T05:23:52.754Z,0.39
2022-08-07T05:26:11.699Z,0.39
2022-08-07T05:28:32.882Z,0.49
2022-08-07T05:30:36.022Z,0.39
2022-08-07T05:32:03.455Z,0.49
2022-08-07T05:33:10.998Z,0.59
2022-08-07T05:35:16.329Z,0.49
2022-08-07T05:36:39.185Z,0.49
2022-08-07T05:40:24.919Z,0.49
2022-08-07T05:43:05.940Z,0.88
2022-08-07T05:45:47.407Z,0.98
2022-08-07T05:46:57.021Z,0.98
2022-08-07T05:49:46.655Z,0.88
2022-08-07T05:50:56.460Z,0.88
2022-08-07T05:52:11.586Z,0.88
2022-08-07T05:56:01.864Z,0.88
2022-08-07T05:57:09.908Z,0.88
2022-08-07T05:58:16.765Z,0.88
2022-08-07T06:00:51.899Z,0.88
2022-08-07T06:02:05.145Z,0.88
2022-08-07T06:03:12.196Z,0.98
2022-08-07T06:05:33.836Z,0.88
2022-08-07T06:06:56.669Z,0.88
2022-08-07T06:09:04.648Z,0.88
2022-08-07T06:11:28.132Z,0.98
2022-08-07T06:12:44.657Z,0.98
2022-08-07T06:15:02.958Z,0.98
2022-08-07T06:17:12.971Z,0.98
2022-08-07T06:18:25.317Z,1.17
2022-08-07T06:22:16.832Z,0.98
2022-08-07T06:26:18.321Z,0.98
2022-08-07T06:28:07.686Z,1.17
2022-08-07T06:29:13.448Z,1.37
2022-08-07T06:31:11.360Z,1.46
2022-08-07T06:32:19.054Z,1.56
2022-08-07T06:33:29.723Z,1.76
2022-08-07T06:35:23.849Z,2.05
2022-08-07T06:36:58.518Z,2.05
2022-08-07T06:38:28.445Z,1.95
2022-08-07T06:42:38.833Z,1.66
2022-08-07T06:44:22.120Z,1.66
2022-08-07T06:45:29.671Z,1.76
2022-08-07T06:48:03.445Z,1.76
2022-08-07T06:49:10.337Z,1.76
2022-08-07T06:50:31.940Z,1.66
2022-08-07T06:52:43.283Z,1.76
2022-08-07T06:56:26.721Z,1.66
2022-08-07T06:57:57.245Z,1.76
2022-08-07T07:00:48.145Z,1.76
2022-08-07T07:02:53.320Z,1.86
2022-08-07T07:05:12.767Z,1.95
2022-08-07T07:08:39.680Z,1.76
2022-08-07T07:09:56.705Z,1.95
2022-08-07T07:12:18.074Z,1.95
2022-08-07T07:14:32.986Z,2.05
2022-08-07T07:16:04.801Z,1.95
2022-08-07T07:17:39.131Z,2.05
2022-08-07T07:20:27.064Z,2.05
2022-08-07T07:24:12.978Z,2.05
2022-08-07T07:27:09.497Z,2.15
2022-08-07T07:30:58.068Z,2.05
2022-08-07T07:32:12.865Z,2.05
2022-08-07T07:33:20.669Z,2.15
2022-08-07T07:35:16.408Z,2.15
2022-08-07T07:36:47.951Z,2.15
2022-08-07T07:38:28.281Z,2.15
2022-08-07T07:40:37.395Z,2.44
2022-08-07T07:42:35.710Z,2.44
2022-08-07T07:44:45.550Z,2.44
2022-08-07T07:48:24.193Z,2.34
2022-08-07T07:51:13.164Z,2.64
2022-08-07T07:52:29.397Z,2.64
2022-08-07T07:54:27.432Z,2.54
2022-08-07T07:55:54.798Z,2.54
2022-08-07T07:57:08.710Z,2.54
2022-08-07T07:59:14.774Z,2.64
2022-08-07T08:02:10.641Z,2.54
2022-08-07T08:04:31.720Z,2.64
2022-08-07T08:06:17.225Z,2.73
2022-08-07T08:09:00.382Z,2.83
2022-08-07T08:10:59.469Z,2.73
2022-08-07T08:13:16.275Z,2.73
2022-08-07T08:18:50.734Z,2.64
2022-08-07T08:20:59.743Z,2.93
2022-08-07T08:23:02.082Z,2.83
2022-08-07T08:26:06.655Z,2.83
2022-08-07T08:27:22.447Z,2.83
2022-08-07T08:28:50.919Z,2.83
2022-08-07T08:30:51.504Z,3.03
2022-08-07T08:33:10.403Z,2.93
2022-08-07T08:34:40.355Z,3.03
2022-08-07T08:36:35.554Z,2.93
2022-08-07T08:38:38.612Z,2.93
2022-08-07T08:40:29.204Z,3.13
2022-08-07T08:42:37.028Z,2.93
2022-08-07T08:44:12.234Z,2.83
2022-08-07T08:45:19.454Z,2.93
2022-08-07T08:47:24.941Z,2.93
2022-08-07T08:48:44.036Z,3.03
2022-08-07T08:50:51.663Z,3.32
2022-08-07T08:53:25.539Z,3.13
2022-08-07T08:54:36.234Z,3.32
2022-08-07T08:56:27.241Z,3.32
2022-08-07T08:58:13.276Z,3.22
2022-08-07T08:59:50.342Z,3.22
2022-08-07T09:00:58.418Z,3.13
2022-08-07T09:02:43.205Z,3.32
2022-08-07T09:04:31.779Z,3.32
2022-08-07T09:06:11.307Z,3.13
2022-08-07T09:07:27.052Z,3.22
2022-08-07T09:08:46.752Z,3.52
2022-08-07T09:10:44.404Z,3.52
2022-08-07T09:12:53.282Z,3.61
2022-08-07T09:14:06.111Z,3.52
2022-08-07T09:16:58.801Z,3.52
2022-08-07T09:18:58.999Z,3.52
2022-08-07T09:21:04.306Z,3.61
2022-08-07T09:26:22.835Z,3.52
2022-08-07T09:28:02.047Z,3.52
2022-08-07T09:30:46.457Z,3.61
2022-08-07T09:32:38.491Z,3.61
2022-08-07T09:34:21.566Z,3.71
2022-08-07T09:36:35.789Z,3.71
2022-08-07T09:38:28.921Z,3.61
2022-08-07T09:40:17.135Z,3.61
2022-08-07T09:41:24.095Z,3.81
2022-08-07T09:47:51.622Z,3.91
2022-08-07T09:50:51.506Z,3.81
2022-08-07T09:53:08.496Z,3.81
2022-08-07T09:55:28.743Z,4.10
2022-08-07T09:56:53.315Z,4.00
2022-08-07T09:58:03.764Z,3.91
2022-08-07T10:00:56.100Z,3.81
2022-08-07T10:02:31.615Z,3.91
2022-08-07T10:05:00.645Z,3.91
2022-08-07T10:08:04.748Z,4.00
2022-08-07T10:09:15.160Z,4.10
2022-08-07T10:12:15.104Z,4.00
2022-08-07T10:14:55.163Z,3.91
2022-08-07T10:16:10.817Z,4.00
2022-08-07T10:18:06.259Z,4.10
2022-08-07T10:19:53.092Z,4.00
2022-08-07T10:21:01.773Z,4.00
2022-08-07T10:23:02.358Z,3.91
2022-08-07T10:25:48.282Z,4.20
2022-08-07T10:27:06.797Z,4.00
2022-08-07T10:28:23.698Z,3.91
2022-08-07T10:30:18.719Z,4.00
2022-08-07T10:31:28.263Z,4.00
2022-08-07T10:33:23.616Z,4.00
2022-08-07T10:36:43.231Z,4.00
2022-08-07T10:39:10.193Z,3.91
2022-08-07T10:40:42.278Z,3.71
2022-08-07T10:43:06.847Z,3.81
2022-08-07T10:44:45.338Z,3.91
2022-08-07T10:46:27.446Z,3.71
2022-08-07T10:48:34.951Z,2.83
2022-08-07T10:50:09.013Z,2.73
2022-08-07T10:52:19.487Z,3.81
2022-08-07T10:54:17.426Z,4.00
2022-08-07T10:55:55.538Z,4.00
2022-08-07T10:56:59.794Z,4.10
2022-08-07T10:59:13.646Z,4.00
2022-08-07T11:01:35.161Z,4.00
2022-08-07T11:03:19.446Z,4.20
2022-08-07T11:04:57.676Z,4.20
2022-08-07T11:07:00.978Z,4.10
2022-08-07T11:08:44.649Z,4.10
2022-08-07T11:10:45.337Z,4.00
2022-08-07T11:12:49.418Z,4.20
2022-08-07T11:15:43.591Z,4.20
2022-08-07T11:17:09.044Z,4.20
2022-08-07T11:19:21.456Z,4.00
2022-08-07T11:20:36.185Z,4.20
2022-08-07T11:21:55.754Z,4.30
2022-08-07T11:24:14.180Z,4.30
2022-08-07T11:25:28.843Z,4.10
2022-08-07T11:26:38.549Z,4.10
2022-08-07T11:30:09.953Z,4.39
2022-08-07T11:31:28.933Z,4.30
2022-08-07T11:32:52.903Z,4.39
2022-08-07T11:35:16.594Z,4.39
2022-08-07T11:36:42.843Z,4.39
2022-08-07T11:38:40.079Z,4.20
2022-08-07T11:40:39.378Z,4.20
2022-08-07T11:42:41.458Z,4.30
2022-08-07T11:44:40.021Z,4.30
2022-08-07T11:46:43.618Z,4.39
2022-08-07T11:48:35.879Z,4.49
2022-08-07T11:51:50.759Z,4.20
2022-08-07T11:54:10.162Z,4.30
2022-08-07T11:56:40.296Z,4.30
2022-08-07T11:58:45.701Z,4.00
2022-08-07T12:01:07.398Z,4.10
2022-08-07T12:02:59.094Z,4.00
2022-08-07T12:04:15.479Z,4.20
2022-08-07T12:07:22.057Z,4.39
2022-08-07T12:08:58.277Z,4.49
2022-08-07T12:10:08.090Z,4.39
2022-08-07T12:12:29.962Z,4.30
2022-08-07T12:14:06.616Z,4.69
2022-08-07T12:16:12.631Z,4.79
2022-08-07T12:18:35.099Z,4.69
2022-08-07T12:20:36.560Z,4.49
2022-08-07T12:23:37.321Z,4.69
2022-08-07T12:27:13.274Z,2.15
2022-08-07T12:28:58.955Z,2.05
2022-08-07T12:30:09.480Z,2.05
2022-08-07T12:32:36.293Z,2.05
2022-08-07T12:34:32.309Z,2.15
2022-08-07T12:35:57.620Z,2.34
2022-08-07T12:39:57.398Z,3.71
2022-08-07T12:41:21.920Z,3.71
2022-08-07T12:43:00.639Z,3.71
2022-08-07T12:45:33.693Z,3.52
2022-08-07T12:46:58.840Z,3.61
2022-08-07T12:48:41.500Z,3.91
2022-08-07T12:52:39.940Z,3.81
2022-08-07T12:55:17.924Z,3.32
2022-08-07T12:56:33.169Z,2.15
2022-08-07T12:58:42.930Z,2.34
2022-08-07T13:01:08.215Z,2.34
2022-08-07T13:02:15.857Z,3.03
2022-08-07T13:04:18.992Z,3.71
2022-08-07T13:08:32.310Z,1.95
2022-08-07T13:11:10.334Z,3.91
2022-08-07T13:12:36.365Z,3.81
2022-08-07T13:14:20.581Z,3.61
2022-08-07T13:15:38.100Z,3.61
2022-08-07T13:16:52.347Z,3.52
2022-08-07T13:19:04.159Z,3.52
2022-08-07T13:20:27.720Z,3.71
2022-08-07T13:22:34.093Z,3.61
2022-08-07T13:25:36.463Z,3.71
2022-08-07T13:26:53.661Z,3.71
2022-08-07T13:28:49.310Z,3.81
2022-08-07T13:31:19.178Z,3.91
2022-08-07T13:32:56.050Z,4.00
2022-08-07T13:35:15.873Z,4.00
2022-08-07T13:38:11.995Z,2.44
2022-08-07T13:40:42.375Z,1.95
2022-08-07T13:41:54.653Z,2.05
2022-08-07T13:43:52.601Z,3.13
2022-08-07T13:46:49.691Z,3.32
2022-08-07T13:49:05.072Z,3.81
2022-08-07T13:53:06.856Z,3.71
2022-08-07T13:54:49.307Z,3.61
2022-08-07T13:56:17.818Z,3.61
2022-08-07T13:58:54.202Z,3.91
2022-08-07T14:01:15.114Z,4.00
2022-08-07T14:03:00.721Z,4.00
2022-08-07T14:04:55.683Z,4.20
2022-08-07T14:06:44.428Z,4.30
2022-08-07T14:08:19.214Z,4.20
2022-08-07T14:10:47.400Z,1.95
2022-08-07T14:13:50.702Z,2.54
2022-08-07T14:14:56.541Z,2.83
2022-08-07T14:16:15.163Z,3.13
2022-08-07T14:19:08.564Z,3.61
2022-08-07T14:22:20.120Z,3.52
2022-08-07T14:24:18.695Z,2.93
2022-08-07T14:26:10.820Z,3.13
2022-08-07T14:30:27.734Z,3.13
2022-08-07T14:32:05.066Z,3.03
2022-08-07T14:34:03.723Z,2.93
2022-08-07T14:35:15.717Z,2.83
2022-08-07T14:37:03.457Z,2.93
2022-08-07T15:00:54.855Z,2.54
2022-08-07T15:52:13.706Z,2.44
2022-08-07T15:53:51.877Z,1.66
2022-08-07T15:56:11.789Z,1.86
2022-08-07T15:57:48.704Z,1.66
2022-08-07T15:59:16.530Z,1.66
2022-08-07T16:01:04.907Z,1.46
2022-08-07T16:02:29.609Z,1.56
2022-08-07T16:04:28.852Z,1.56
2022-08-07T16:06:11.523Z,1.56
2022-08-07T16:08:51.353Z,1.56
2022-08-07T16:10:20.291Z,1.37
2022-08-07T16:12:12.127Z,1.37
2022-08-07T16:14:25.118Z,1.37
2022-08-07T16:16:57.084Z,1.46
2022-08-07T16:20:55.196Z,1.37
2022-08-07T16:24:08.976Z,1.37
2022-08-07T16:26:01.230Z,1.37
2022-08-07T16:30:36.896Z,1.17
2022-08-07T16:33:00.067Z,1.17
2022-08-07T16:36:05.035Z,1.17
2022-08-07T16:40:00.607Z,0.98
2022-08-07T16:41:27.916Z,0.98
2022-08-07T16:42:53.449Z,0.98
2022-08-07T16:47:57.287Z,0.98
2022-08-07T16:53:48.138Z,0.98
2022-08-07T16:55:43.702Z,0.98
2022-08-07T16:58:21.464Z,0.88
2022-08-07T17:00:55.008Z,0.88
2022-08-07T17:02:09.207Z,0.88
2022-08-07T17:04:24.437Z,0.88
2022-08-07T17:07:57.982Z,0.88
2022-08-07T17:11:01.230Z,0.78
2022-08-07T17:13:09.006Z,0.78
2022-08-07T17:16:02.410Z,0.78
2022-08-07T17:17:17.740Z,0.78
2022-08-07T17:18:31.579Z,0.78
2022-08-07T17:20:54.902Z,0.68
2022-08-07T17:22:21.874Z,0.68
2022-08-07T17:23:51.757Z,0.68
2022-08-07T17:26:22.891Z,0.68
2022-08-07T17:27:56.876Z,0.59
2022-08-07T17:30:12.411Z,0.59
2022-08-07T17:34:34.929Z,0.59
2022-08-07T17:36:32.456Z,0.59
2022-08-07T17:39:02.622Z,0.59
2022-08-07T17:42:31.970Z,0.49
2022-08-07T17:45:00.392Z,0.49
2022-08-07T17:46:07.155Z,0.49
2022-08-07T17:48:36.077Z,0.49
2022-08-07T17:50:16.449Z,0.39
2022-08-07T17:52:12.747Z,0.39
2022-08-07T17:55:12.829Z,0.39
2022-08-07T17:57:01.280Z,0.39
2022-08-07T17:58:52.152Z,0.39
2022-08-07T18:01:18.227Z,0.39
2022-08-07T18:02:35.112Z,0.39
2022-08-07T18:04:30.813Z,0.29
2022-08-07T18:07:43.584Z,0.29
2022-08-07T18:10:05.179Z,0.29
2022-08-07T18:12:57.582Z,0.29
2022-08-07T18:14:57.755Z,0.29
2022-08-07T18:16:10.578Z,0.29
2022-08-07T18:21:38.380Z,0.29
2022-08-07T18:24:45.948Z,0.00
2022-08-07T18:26:27.547Z,0.00
2022-08-07T18:27:51.286Z,0.00
2022-08-07T18:31:13.209Z,0.00
2022-08-07T18:32:28.556Z,0.00
2022-08-07T18:33:54.843Z,0.00
2022-08-07T18:36:39.048Z,0.00
2022-08-07T18:41:16.825Z,0.00
2022-08-07T18:42:34.969Z,0.00
2022-08-07T18:44:21.919Z,0.00
2022-08-07T18:47:00.685Z,0.00
2022-08-07T18:50:51.968Z,0.00
2022-08-07T18:54:41.640Z,0.00
2022-08-07T18:56:31.483Z,0.00
2022-08-07T18:58:20.864Z,0.00
2022-08-07T19:02:34.355Z,0.00
2022-08-07T19:04:00.913Z,0.00
2022-08-07T19:06:22.212Z,0.00
2022-08-07T19:08:30.918Z,0.00
2022-08-07T19:10:47.857Z,0.00
2022-08-07T19:12:32.311Z,0.00
2022-08-07T19:14:38.412Z,0.00
2022-08-07T19:18:44.918Z,0.00
2022-08-07T19:20:00.495Z,0.00
2022-08-07T19:22:56.310Z,0.00
2022-08-07T19:24:54.643Z,0.00
2022-08-07T19:32:44.879Z,0.00
2022-08-07T19:35:05.312Z,0.00
2022-08-07T19:36:09.920Z,0.00
2022-08-07T19:38:03.490Z,0.00
2022-08-07T19:40:56.440Z,0.00
2022-08-07T19:42:54.824Z,0.00
2022-08-07T19:44:42.765Z,0.00
2022-08-07T19:47:36.578Z,0.00
2022-08-07T19:49:11.248Z,0.00
2022-08-07T19:51:52.591Z,0.00
2022-08-07T19:55:22.389Z,0.00
2022-08-07T19:58:34.686Z,0.00
2022-08-07T19:59:53.273Z,0.00
2022-08-07T20:01:15.394Z,0.00
2022-08-07T20:02:38.957Z,0.00
2022-08-07T20:04:06.598Z,0.00
2022-08-07T20:06:54.338Z,0.00
2022-08-07T20:08:22.500Z,0.00
2022-08-07T20:12:22.077Z,0.00
2022-08-07T20:15:04.953Z,0.00
2022-08-07T20:16:45.268Z,0.00
2022-08-07T20:18:18.079Z,0.00
2022-08-07T20:20:21.632Z,0.00
2022-08-07T20:22:01.337Z,0.00
2022-08-07T20:23:40.814Z,0.00
2022-08-07T20:25:32.286Z,0.00
2022-08-07T20:27:13.220Z,0.00
2022-08-07T20:29:01.192Z,0.00
2022-08-07T20:31:27.077Z,0.00
2022-08-07T20:32:57.228Z,0.00
2022-08-07T20:34:13.813Z,0.00
2022-08-07T20:36:28.435Z,0.00
2022-08-07T20:37:55.190Z,0.00
2022-08-07T20:40:51.428Z,0.00
2022-08-07T20:42:40.861Z,0.00
2022-08-07T20:44:03.122Z,0.00
2022-08-07T20:46:44.497Z,0.00
2022-08-07T20:50:21.944Z,0.00
2022-08-07T20:51:35.721Z,0.00
2022-08-07T20:53:16.944Z,0.00
2022-08-07T20:55:47.384Z,0.00
2022-08-07T20:57:00.816Z,0.00
2022-08-07T20:58:39.332Z,0.00
2022-08-07T21:00:53.707Z,0.00
2022-08-07T21:02:39.160Z,0.00
2022-08-07T21:04:28.632Z,0.00
2022-08-07T21:06:53.735Z,0.00
2022-08-07T21:08:05.553Z,0.00
2022-08-07T21:09:24.274Z,0.00
2022-08-07T21:11:40.033Z,0.00
2022-08-07T21:13:06.094Z,0.00
2022-08-07T21:15:06.793Z,0.00
2022-08-07T21:18:58.912Z,0.00
2022-08-07T21:20:56.305Z,0.00
2022-08-07T21:22:31.244Z,0.00
2022-08-07T21:24:21.646Z,0.00
2022-08-07T21:25:44.999Z,0.00
2022-08-07T21:27:12.668Z,0.00
2022-08-07T21:29:30.726Z,0.00
2022-08-07T21:30:43.501Z,0.00
2022-08-07T21:33:16.881Z,0.00
2022-08-07T21:35:17.238Z,0.00
2022-08-07T21:37:03.652Z,0.00
2022-08-07T21:38:39.651Z,0.00
2022-08-07T21:41:15.679Z,0.00
2022-08-07T21:43:06.256Z,0.00
2022-08-07T21:44:41.880Z,0.00
2022-08-07T21:48:01.712Z,0.00
2022-08-07T21:49:40.658Z,0.00
2022-08-07T21:51:07.410Z,0.00
2022-08-07T21:53:27.705Z,0.00
2022-08-07T21:54:37.533Z,0.00
2022-08-07T21:55:53.172Z,0.00
2022-08-07T21:58:38.138Z,0.00
2022-08-07T22:00:55.826Z,0.00
2022-08-07T22:02:47.068Z,0.00
2022-08-07T22:04:06.170Z,0.00
2022-08-07T22:06:36.999Z,0.00
2022-08-07T22:08:25.517Z,0.00
2022-08-07T22:09:31.607Z,0.00
2022-08-07T22:11:20.652Z,0.00
2022-08-07T22:12:45.457Z,0.00
2022-08-07T22:16:39.713Z,0.00
2022-08-07T22:18:28.347Z,0.00
2022-08-07T22:19:42.808Z,0.00
2022-08-07T22:20:53.381Z,0.00
2022-08-07T22:23:14.169Z,0.00
2022-08-07T22:24:17.102Z,0.00
2022-08-07T22:25:36.272Z,0.00
2022-08-07T22:27:18.566Z,0.00
2022-08-07T22:29:05.216Z,0.00
2022-08-07T22:30:26.497Z,0.00
2022-08-07T22:32:49.358Z,0.00
2022-08-07T22:34:52.972Z,0.00
2022-08-07T22:36:17.533Z,0.00
2022-08-07T22:38:47.969Z,0.00
2022-08-07T22:40:17.480Z,0.00
2022-08-07T22:42:02.339Z,0.00
2022-08-07T22:44:01.801Z,0.00
2022-08-07T22:47:23.379Z,0.00
2022-08-07T22:49:33.857Z,0.00
2022-08-07T22:51:13.923Z,0.00
2022-08-07T22:52:51.528Z,0.00
2022-08-07T22:54:39.226Z,0.00
2022-08-07T22:56:47.816Z,0.00
2022-08-07T22:58:04.689Z,0.00
2022-08-07T22:59:11.947Z,0.00
2022-08-07T23:00:48.817Z,0.00
2022-08-07T23:02:19.469Z,0.00
2022-08-07T23:03:29.501Z,0.00
2022-08-07T23:06:41.050Z,0.00
2022-08-07T23:08:30.521Z,0.00
2022-08-07T23:11:10.307Z,0.00
2022-08-07T23:13:05.008Z,0.00
2022-08-07T23:14:41.695Z,0.00
2022-08-07T23:17:27.858Z,0.00
2022-08-07T23:19:17.051Z,0.00
2022-08-07T23:20:59.312Z,0.00
2022-08-07T23:22:06.738Z,0.00
2022-08-07T23:24:45.392Z,0.00
2022-08-07T23:25:52.792Z,0.00
2022-08-07T23:27:07.886Z,0.00
2022-08-07T23:34:45.294Z,0.00
2022-08-07T23:35:55.023Z,0.00
2022-08-07T23:37:35.127Z,0.00
2022-08-07T23:40:01.501Z,0.00
2022-08-07T23:41:13.391Z,0.00
2022-08-07T23:42:53.228Z,0.00
2022-08-07T23:44:54.286Z,0.00
2022-08-07T23:46:48.852Z,0.00
2022-08-07T23:48:08.544Z,0.00
2022-08-07T23:50:16.203Z,0.00
2022-08-07T23:53:51.286Z,0.00
2022-08-07T23:56:01.305Z,0.00
2022-08-07T23:57:53.115Z,0.00
